Time;durP1;ratioP1;P1;durP2;ratioP2;P2;SDS_P1;SDS_P2;PMS_P1;PMS_P2;Temp;Humidity;BMP_temperature;BMP_pressure;BME280_temperature;BME280_humidity;BME280_pressure;Samples;Min_cycle;Max_cycle;Signal;HPM_P1;HPM_P2
2022/01/06 00:01:46;;;;;;;10.07;3.57;;;;;;;;;;5063964;28;20074;-73
2022/01/06 00:04:12;;;;;;;11.27;2.77;;;;;;;;;;5050730;28;20051;-74
2022/01/06 00:06:41;;;;;;;5.93;2.67;;;;;;;;;;5051452;28;20033;-73
2022/01/06 00:09:09;;;;;;;5.03;2.40;;;;;;;;;;5051661;28;20393;-73
2022/01/06 00:11:35;;;;;;;7.47;2.37;;;;;;;;;;5051884;28;20462;-73
2022/01/06 00:14:35;;;;;;;9.43;3.17;;;;;;;;;;5051689;28;20067;-73
2022/01/06 00:24:27;;;;;;;6.83;2.30;;;;;;;;;;5051637;28;20090;-74
2022/01/06 00:26:53;;;;;;;10.83;2.97;;;;;;;;;;5051533;28;20095;-72
2022/01/06 00:29:20;;;;;;;10.83;3.30;;;;;;;;;;5051013;28;20032;-73
2022/01/06 00:31:46;;;;;;;4.40;1.90;;;;;;;;;;5050291;28;20028;-72
2022/01/06 00:34:12;;;;;;;12.87;3.17;;;;;;;;;;5050024;28;20068;-73
2022/01/06 00:36:39;;;;;;;4.07;2.47;;;;;;;;;;5050401;28;20027;-72
2022/01/06 00:39:05;;;;;;;10.73;3.23;;;;;;;;;;5050494;28;20068;-72
2022/01/06 00:41:33;;;;;;;4.23;2.20;;;;;;;;;;5049714;28;20021;-71
2022/01/06 00:43:59;;;;;;;9.43;2.40;;;;;;;;;;5050833;28;20626;-72
2022/01/06 00:46:28;;;;;;;8.57;2.27;;;;;;;;;;5051255;28;20021;-75
2022/01/06 00:48:54;;;;;;;9.33;3.27;;;;;;;;;;5049632;28;20395;-72
2022/01/06 00:51:19;;;;;;;7.43;2.27;;;;;;;;;;5049027;28;20025;-72
2022/01/06 00:53:45;;;;;;;8.80;3.63;;;;;;;;;;5049472;28;20025;-73
2022/01/06 00:56:10;;;;;;;7.97;2.30;;;;;;;;;;5050643;28;20033;-73
2022/01/06 00:58:36;;;;;;;5.30;3.07;;;;;;;;;;5049298;28;20388;-72
2022/01/06 01:01:02;;;;;;;5.10;2.30;;;;;;;;;;5049221;28;20033;-72
2022/01/06 01:03:28;;;;;;;9.57;2.90;;;;;;;;;;5049304;28;20499;-72
2022/01/06 01:05:55;;;;;;;7.10;2.00;;;;;;;;;;5050437;28;20033;-72
2022/01/06 01:08:22;;;;;;;7.90;2.60;;;;;;;;;;5050820;28;20035;-72
2022/01/06 01:10:49;;;;;;;9.97;2.47;;;;;;;;;;5050464;28;20033;-73
2022/01/06 01:13:15;;;;;;;11.70;3.27;;;;;;;;;;5050508;28;20025;-72
2022/01/06 01:15:50;;;;;;;5.53;2.63;;;;;;;;;;5050450;28;20126;-72
2022/01/06 01:18:19;;;;;;;7.50;2.57;;;;;;;;;;5049206;28;20111;-71
2022/01/06 01:20:47;;;;;;;5.00;2.40;;;;;;;;;;5051844;28;20032;-73
2022/01/06 01:23:13;;;;;;;7.80;2.20;;;;;;;;;;5052746;28;20082;-72
2022/01/06 01:25:39;;;;;;;16.23;2.57;;;;;;;;;;5053075;28;20048;-73
2022/01/06 01:28:04;;;;;;;4.67;1.70;;;;;;;;;;5049409;28;20052;-73
2022/01/06 01:30:39;;;;;;;7.13;3.23;;;;;;;;;;5050486;28;20031;-72
2022/01/06 01:33:13;;;;;;;8.57;2.67;;;;;;;;;;5048825;28;20029;-71
2022/01/06 01:35:40;;;;;;;5.03;2.20;;;;;;;;;;5050051;28;20116;-72
2022/01/06 01:38:07;;;;;;;7.10;2.50;;;;;;;;;;5049916;28;20044;-72
2022/01/06 01:40:32;;;;;;;3.43;1.80;;;;;;;;;;5048721;28;20052;-73
2022/01/06 01:42:58;;;;;;;5.77;2.50;;;;;;;;;;5049732;28;20477;-72
2022/01/06 01:45:29;;;;;;;9.73;2.87;;;;;;;;;;5048341;28;20111;-73
2022/01/06 01:47:57;;;;;;;7.67;2.60;;;;;;;;;;5049866;28;20119;-73
2022/01/06 01:50:22;;;;;;;12.20;2.60;;;;;;;;;;5047985;28;20029;-72
2022/01/06 01:52:57;;;;;;;6.27;2.33;;;;;;;;;;5049984;28;20114;-71
2022/01/06 01:55:29;;;;;;;9.60;4.10;;;;;;;;;;5044017;28;20497;-73
2022/01/06 01:57:56;;;;;;;7.35;2.83;;;;;;;;;;5048305;28;20037;-71
2022/01/06 02:00:27;;;;;;;5.50;2.67;;;;;;;;;;5049218;28;20083;-72
2022/01/06 02:02:53;;;;;;;9.93;3.37;;;;;;;;;;5049212;28;20021;-72
2022/01/06 02:05:25;;;;;;;7.17;2.67;;;;;;;;;;5049078;28;20036;-72
2022/01/06 02:07:51;;;;;;;11.60;2.65;;;;;;;;;;5050025;28;20135;-73
2022/01/06 02:10:18;;;;;;;4.30;2.60;;;;;;;;;;5049589;28;20532;-71
2022/01/06 02:12:50;;;;;;;8.10;2.60;;;;;;;;;;5050041;28;20129;-72
2022/01/06 02:15:16;;;;;;;9.30;2.70;;;;;;;;;;5047854;28;20021;-72
2022/01/06 02:17:43;;;;;;;5.73;2.33;;;;;;;;;;5049577;28;20024;-72
2022/01/06 02:20:12;;;;;;;6.67;3.10;;;;;;;;;;5045567;28;20272;-73
2022/01/06 02:22:39;;;;;;;4.63;2.33;;;;;;;;;;5047626;28;20060;-72
2022/01/06 02:25:17;;;;;;;7.43;2.97;;;;;;;;;;5047636;28;20318;-71
2022/01/06 02:27:45;;;;;;;6.20;2.47;;;;;;;;;;5047778;28;20052;-72
2022/01/06 02:30:12;;;;;;;7.07;2.57;;;;;;;;;;5048964;28;20055;-71
2022/01/06 02:32:37;;;;;;;4.77;2.47;;;;;;;;;;5049309;28;20067;-73
2022/01/06 02:35:06;;;;;;;5.53;2.50;;;;;;;;;;5048690;28;20116;-72
2022/01/06 02:37:32;;;;;;;4.43;3.63;;;;;;;;;;5048895;28;20120;-72
2022/01/06 02:39:57;;;;;;;4.13;2.27;;;;;;;;;;5047912;28;20124;-74
2022/01/06 02:42:23;;;;;;;4.77;2.70;;;;;;;;;;5049081;28;20060;-73
2022/01/06 02:44:49;;;;;;;5.87;2.70;;;;;;;;;;5045148;28;20036;-71
2022/01/06 02:47:14;;;;;;;6.00;3.20;;;;;;;;;;5046617;28;20400;-73
2022/01/06 02:49:40;;;;;;;4.03;2.27;;;;;;;;;;5048898;28;20029;-73
2022/01/06 02:52:07;;;;;;;13.87;2.77;;;;;;;;;;5044066;28;20450;-71
2022/01/06 02:54:32;;;;;;;10.77;2.33;;;;;;;;;;5080033;28;20025;-72
2022/01/06 02:56:58;;;;;;;6.87;2.90;;;;;;;;;;5049149;28;20033;-72
2022/01/06 02:59:24;;;;;;;8.27;2.67;;;;;;;;;;5044660;28;20083;-72
2022/01/06 03:01:49;;;;;;;11.10;3.33;;;;;;;;;;5039107;28;20503;-72
2022/01/06 03:04:15;;;;;;;5.33;2.83;;;;;;;;;;5047486;28;20110;-74
2022/01/06 03:06:41;;;;;;;6.87;2.43;;;;;;;;;;5048508;28;20514;-71
2022/01/06 03:09:08;;;;;;;4.57;2.40;;;;;;;;;;5048432;28;20025;-71
2022/01/06 03:11:34;;;;;;;6.33;2.77;;;;;;;;;;5047448;28;20111;-73
2022/01/06 03:14:00;;;;;;;9.40;2.43;;;;;;;;;;5048146;28;20132;-73
2022/01/06 03:16:26;;;;;;;7.57;2.20;;;;;;;;;;5051173;28;20029;-71
2022/01/06 03:18:52;;;;;;;5.50;2.87;;;;;;;;;;5051168;28;20031;-72
2022/01/06 03:21:18;;;;;;;10.20;2.93;;;;;;;;;;5051134;28;20017;-72
2022/01/06 03:23:43;;;;;;;9.27;2.20;;;;;;;;;;5051172;28;20116;-72
2022/01/06 03:26:09;;;;;;;5.27;2.40;;;;;;;;;;5051182;28;20120;-72
2022/01/06 03:28:35;;;;;;;7.97;2.90;;;;;;;;;;5051430;28;20021;-71
2022/01/06 03:31:00;;;;;;;8.50;2.50;;;;;;;;;;5051392;28;20040;-71
2022/01/06 03:33:26;;;;;;;4.70;2.27;;;;;;;;;;5052626;28;20025;-73
2022/01/06 03:35:52;;;;;;;4.93;2.20;;;;;;;;;;5052437;28;20381;-71
2022/01/06 03:38:18;;;;;;;4.83;2.03;;;;;;;;;;5050502;28;20045;-71
2022/01/06 03:40:43;;;;;;;7.43;2.33;;;;;;;;;;5051864;28;20021;-71
2022/01/06 03:43:11;;;;;;;5.70;2.33;;;;;;;;;;5051826;28;20404;-72
2022/01/06 03:45:37;;;;;;;6.20;1.93;;;;;;;;;;5050835;28;20039;-72
2022/01/06 03:48:05;;;;;;;8.87;3.40;;;;;;;;;;5051941;28;20443;-73
2022/01/06 03:50:31;;;;;;;5.77;2.63;;;;;;;;;;5051664;28;20032;-71
2022/01/06 03:52:56;;;;;;;5.30;2.07;;;;;;;;;;5050828;28;20036;-72
2022/01/06 03:55:23;;;;;;;10.67;2.70;;;;;;;;;;5050459;28;20043;-74
2022/01/06 03:57:49;;;;;;;8.47;2.10;;;;;;;;;;5051897;28;20028;-72
2022/01/06 04:00:18;;;;;;;13.33;3.90;;;;;;;;;;5050402;28;20522;-72
2022/01/06 04:02:45;;;;;;;3.40;2.37;;;;;;;;;;5050601;28;20068;-72
2022/01/06 04:05:11;;;;;;;7.57;2.93;;;;;;;;;;5052179;28;20051;-71
2022/01/06 04:07:38;;;;;;;7.93;2.67;;;;;;;;;;5084946;28;20029;-70
2022/01/06 04:10:05;;;;;;;3.63;2.33;;;;;;;;;;5051451;28;20025;-73
2022/01/06 04:12:34;;;;;;;5.23;3.37;;;;;;;;;;5050304;28;20111;-72
2022/01/06 04:15:00;;;;;;;5.77;2.23;;;;;;;;;;5050216;28;20124;-73
2022/01/06 04:17:26;;;;;;;6.83;2.30;;;;;;;;;;5051039;28;20103;-73
2022/01/06 04:19:51;;;;;;;3.80;2.13;;;;;;;;;;5050309;28;20021;-71
2022/01/06 04:22:17;;;;;;;4.47;2.30;;;;;;;;;;5050853;28;20029;-71
2022/01/06 04:24:44;;;;;;;5.33;3.07;;;;;;;;;;5049749;28;20021;-72
2022/01/06 04:27:10;;;;;;;8.10;2.40;;;;;;;;;;5049864;28;20029;-71
2022/01/06 04:29:36;;;;;;;6.47;2.50;;;;;;;;;;5049719;28;20426;-71
2022/01/06 04:32:01;;;;;;;4.70;2.27;;;;;;;;;;5050013;28;20473;-71
2022/01/06 04:34:27;;;;;;;5.60;2.20;;;;;;;;;;5050099;28;20163;-72
2022/01/06 04:36:55;;;;;;;8.00;2.50;;;;;;;;;;5051008;28;20074;-72
2022/01/06 04:39:21;;;;;;;6.03;2.13;;;;;;;;;;5049421;28;20079;-74
2022/01/06 04:41:47;;;;;;;8.07;2.23;;;;;;;;;;5050060;28;20493;-75
2022/01/06 04:44:12;;;;;;;4.90;2.67;;;;;;;;;;5049467;28;20032;-74
2022/01/06 04:46:38;;;;;;;5.83;2.20;;;;;;;;;;5051356;28;20025;-75
2022/01/06 04:49:04;;;;;;;5.47;2.37;;;;;;;;;;5050770;28;20555;-75
2022/01/06 04:51:30;;;;;;;13.77;2.53;;;;;;;;;;5050579;28;20497;-75
2022/01/06 04:53:56;;;;;;;16.00;5.50;;;;;;;;;;5053754;28;20036;-73
2022/01/06 04:56:21;;;;;;;9.40;3.83;;;;;;;;;;5054136;28;20037;-76
2022/01/06 04:58:48;;;;;;;5.77;2.00;;;;;;;;;;5049606;28;20043;-76
2022/01/06 05:01:13;;;;;;;7.27;2.80;;;;;;;;;;5049047;28;20075;-75
2022/01/06 05:03:39;;;;;;;8.70;2.90;;;;;;;;;;5049439;28;20423;-75
2022/01/06 05:06:04;;;;;;;4.83;2.40;;;;;;;;;;5049190;28;20528;-74
2022/01/06 05:08:30;;;;;;;5.73;2.53;;;;;;;;;;5049042;28;20047;-74
2022/01/06 05:10:56;;;;;;;8.63;2.57;;;;;;;;;;5050533;28;20397;-74
2022/01/06 05:13:21;;;;;;;5.90;2.03;;;;;;;;;;5050489;28;20101;-76
2022/01/06 05:15:47;;;;;;;7.27;3.40;;;;;;;;;;5050231;28;20366;-76
2022/01/06 05:18:12;;;;;;;5.07;2.50;;;;;;;;;;5050034;28;20037;-73
2022/01/06 05:20:42;;;;;;;9.37;2.80;;;;;;;;;;5050654;28;20020;-76
2022/01/06 05:23:08;;;;;;;6.40;2.50;;;;;;;;;;5048827;28;20033;-74
2022/01/06 05:25:34;;;;;;;3.83;2.23;;;;;;;;;;5050518;28;20060;-75
2022/01/06 05:27:59;;;;;;;8.87;3.10;;;;;;;;;;5048881;28;20060;-75
2022/01/06 05:30:25;;;;;;;11.73;3.20;;;;;;;;;;5048458;28;20113;-76
2022/01/06 05:32:51;;;;;;;11.50;3.20;;;;;;;;;;5048695;28;20156;-76
2022/01/06 05:35:17;;;;;;;10.00;2.70;;;;;;;;;;5049478;28;20081;-74
2022/01/06 05:37:42;;;;;;;6.10;2.83;;;;;;;;;;5047631;28;20340;-75
2022/01/06 05:40:08;;;;;;;4.90;2.40;;;;;;;;;;5049726;28;20031;-75
2022/01/06 05:42:34;;;;;;;7.90;2.70;;;;;;;;;;5048451;28;20052;-75
2022/01/06 05:44:59;;;;;;;4.20;2.37;;;;;;;;;;5048875;28;20064;-75
2022/01/06 05:47:25;;;;;;;10.03;3.53;;;;;;;;;;5049198;28;20201;-76
2022/01/06 05:49:50;;;;;;;7.47;2.80;;;;;;;;;;5049059;28;20028;-75
2022/01/06 05:52:17;;;;;;;6.17;2.30;;;;;;;;;;5048435;28;20033;-75
2022/01/06 05:54:43;;;;;;;5.10;2.87;;;;;;;;;;5048519;28;20031;-75
2022/01/06 05:57:09;;;;;;;8.80;2.83;;;;;;;;;;5048362;28;20033;-74
2022/01/06 05:59:35;;;;;;;11.10;2.87;;;;;;;;;;5049450;28;20025;-75
2022/01/06 06:02:01;;;;;;;7.00;2.37;;;;;;;;;;5049457;28;20037;-75
2022/01/06 06:04:28;;;;;;;7.93;2.70;;;;;;;;;;5048044;28;20031;-76
2022/01/06 06:06:53;;;;;;;10.97;4.27;;;;;;;;;;5048362;28;20032;-75
2022/01/06 06:09:19;;;;;;;8.70;2.33;;;;;;;;;;5049634;28;20047;-75
2022/01/06 06:11:44;;;;;;;6.63;2.23;;;;;;;;;;5049954;28;20340;-76
2022/01/06 06:14:10;;;;;;;4.23;2.60;;;;;;;;;;5047493;28;20447;-75
2022/01/06 06:16:35;;;;;;;5.63;2.67;;;;;;;;;;5041522;28;20446;-76
2022/01/06 06:19:01;;;;;;;8.40;3.10;;;;;;;;;;5044815;28;20419;-75
2022/01/06 06:21:27;;;;;;;6.23;3.40;;;;;;;;;;5047422;28;20028;-74
2022/01/06 06:23:53;;;;;;;15.47;3.30;;;;;;;;;;5048543;28;20037;-75
2022/01/06 06:26:18;;;;;;;9.77;2.80;;;;;;;;;;5047070;28;20401;-74
2022/01/06 06:28:44;;;;;;;9.97;3.07;;;;;;;;;;5048249;28;20093;-75
2022/01/06 06:31:09;;;;;;;9.33;2.67;;;;;;;;;;5050177;28;20060;-75
2022/01/06 06:33:35;;;;;;;7.57;2.90;;;;;;;;;;5039812;28;20036;-75
2022/01/06 06:36:00;;;;;;;9.37;3.73;;;;;;;;;;5052568;28;20044;-74
2022/01/06 06:38:26;;;;;;;8.23;3.03;;;;;;;;;;5051834;28;20045;-75
2022/01/06 06:40:52;;;;;;;9.17;2.93;;;;;;;;;;5049537;28;20458;-75
2022/01/06 06:43:17;;;;;;;7.97;2.60;;;;;;;;;;5047391;28;20496;-75
2022/01/06 06:45:43;;;;;;;6.23;2.80;;;;;;;;;;5048198;28;20555;-75
2022/01/06 06:48:11;;;;;;;21.53;3.07;;;;;;;;;;5048013;28;20031;-75
2022/01/06 06:50:38;;;;;;;10.80;3.33;;;;;;;;;;5050841;28;20060;-74
2022/01/06 06:53:03;;;;;;;7.57;2.97;;;;;;;;;;5050903;28;20029;-75
2022/01/06 06:55:29;;;;;;;12.13;4.47;;;;;;;;;;5052549;28;20084;-75
2022/01/06 06:57:55;;;;;;;4.80;2.10;;;;;;;;;;5052553;28;20428;-75
2022/01/06 07:00:21;;;;;;;4.70;2.40;;;;;;;;;;5050582;28;20108;-75
2022/01/06 07:02:47;;;;;;;15.97;2.40;;;;;;;;;;5051802;28;20020;-74
2022/01/06 07:05:15;;;;;;;6.10;1.97;;;;;;;;;;5051256;28;20060;-74
2022/01/06 07:07:42;;;;;;;8.63;2.63;;;;;;;;;;5052126;28;20036;-73
2022/01/06 07:10:08;;;;;;;13.83;2.57;;;;;;;;;;5075472;28;20048;-77
2022/01/06 07:12:40;;;;;;;5.03;1.90;;;;;;;;;;5078670;28;20040;-75
2022/01/06 07:15:08;;;;;;;20.10;6.70;;;;;;;;;;5044329;28;20058;-76
2022/01/06 07:17:34;;;;;;;8.87;2.40;;;;;;;;;;5044888;28;20033;-74
2022/01/06 07:19:59;;;;;;;9.77;2.80;;;;;;;;;;5044023;28;20083;-74
2022/01/06 07:22:25;;;;;;;8.17;2.73;;;;;;;;;;5043300;28;20027;-75
2022/01/06 07:24:50;;;;;;;15.87;2.80;;;;;;;;;;5046142;28;20032;-75
2022/01/06 07:27:16;;;;;;;10.63;3.33;;;;;;;;;;5046310;28;20060;-75
2022/01/06 07:29:42;;;;;;;7.77;3.17;;;;;;;;;;5043363;28;20036;-74
2022/01/06 07:32:08;;;;;;;11.63;3.13;;;;;;;;;;5058186;28;20040;-74
2022/01/06 07:34:34;;;;;;;10.80;3.37;;;;;;;;;;5057679;28;20811;-73
2022/01/06 07:37:00;;;;;;;10.37;2.17;;;;;;;;;;5041156;28;20680;-74
2022/01/06 07:39:29;;;;;;;5.07;2.30;;;;;;;;;;5035271;28;20095;-74
2022/01/06 07:41:57;;;;;;;6.65;2.45;;;;;;;;;;5040052;28;20033;-75
2022/01/06 07:44:24;;;;;;;7.60;2.07;;;;;;;;;;5042329;28;20029;-77
2022/01/06 07:46:49;;;;;;;5.03;2.10;;;;;;;;;;5045656;28;20033;-74
2022/01/06 07:49:15;;;;;;;3.03;1.63;;;;;;;;;;5041954;28;20599;-74
2022/01/06 07:51:42;;;;;;;4.27;1.70;;;;;;;;;;5043448;28;20037;-75
2022/01/06 07:54:08;;;;;;;4.70;2.13;;;;;;;;;;5075643;28;20033;-74
2022/01/06 07:56:34;;;;;;;2.80;1.77;;;;;;;;;;5042794;28;20120;-74
2022/01/06 07:59:01;;;;;;;4.37;2.13;;;;;;;;;;5038291;28;20029;-74
2022/01/06 08:01:26;;;;;;;3.60;1.43;;;;;;;;;;5023171;28;20029;-75
2022/01/06 08:03:52;;;;;;;6.33;2.40;;;;;;;;;;5045139;28;20033;-73
2022/01/06 08:06:19;;;;;;;6.03;2.10;;;;;;;;;;5036484;28;20037;-74
2022/01/06 08:08:45;;;;;;;4.30;2.30;;;;;;;;;;5038442;28;20071;-74
2022/01/06 08:11:12;;;;;;;4.17;1.80;;;;;;;;;;5076788;28;21419;-74
2022/01/06 08:13:38;;;;;;;4.33;2.23;;;;;;;;;;5045693;28;20039;-75
2022/01/06 08:16:04;;;;;;;6.53;2.03;;;;;;;;;;5044516;28;20037;-75
2022/01/06 08:18:30;;;;;;;4.07;2.30;;;;;;;;;;5028392;28;20082;-74
2022/01/06 08:20:56;;;;;;;5.40;2.23;;;;;;;;;;5049072;28;20082;-74
2022/01/06 08:23:22;;;;;;;9.53;2.33;;;;;;;;;;5046711;28;20024;-73
2022/01/06 08:25:48;;;;;;;4.17;2.53;;;;;;;;;;5049798;28;20039;-76
2022/01/06 08:28:14;;;;;;;3.17;2.27;;;;;;;;;;5047266;28;20052;-72
2022/01/06 08:30:41;;;;;;;7.40;2.87;;;;;;;;;;5046420;28;20618;-76
2022/01/06 08:33:06;;;;;;;5.37;2.10;;;;;;;;;;5029523;28;20087;-75
2022/01/06 08:35:33;;;;;;;4.97;2.40;;;;;;;;;;5045885;28;20497;-74
2022/01/06 08:37:59;;;;;;;4.80;2.20;;;;;;;;;;5044662;28;20551;-74
2022/01/06 08:40:26;;;;;;;6.53;2.30;;;;;;;;;;5047147;28;20017;-78
2022/01/06 08:42:53;;;;;;;11.63;4.57;;;;;;;;;;5046758;28;20032;-75
2022/01/06 08:45:19;;;;;;;5.20;2.23;;;;;;;;;;5026475;28;20028;-75
2022/01/06 08:47:47;;;;;;;4.93;2.43;;;;;;;;;;5043756;28;20627;-76
2022/01/06 08:50:13;;;;;;;2.57;1.93;;;;;;;;;;5025206;28;20037;-75
2022/01/06 08:52:40;;;;;;;7.63;2.23;;;;;;;;;;5059400;28;20033;-75
2022/01/06 08:55:07;;;;;;;6.80;2.87;;;;;;;;;;5038241;28;20202;-75
2022/01/06 08:57:34;;;;;;;6.60;2.70;;;;;;;;;;5070964;28;20035;-75
2022/01/06 09:00:00;;;;;;;5.90;2.17;;;;;;;;;;5035202;28;20385;-75
2022/01/06 09:02:27;;;;;;;6.17;2.47;;;;;;;;;;5040013;28;20029;-75
2022/01/06 09:04:55;;;;;;;7.73;2.40;;;;;;;;;;5041086;28;20517;-75
2022/01/06 09:07:25;;;;;;;9.47;2.97;;;;;;;;;;5043676;28;20104;-77
2022/01/06 09:09:51;;;;;;;8.77;2.30;;;;;;;;;;5041875;28;21013;-76
2022/01/06 09:12:19;;;;;;;6.37;1.90;;;;;;;;;;5041368;28;20060;-76
2022/01/06 09:14:45;;;;;;;9.97;2.90;;;;;;;;;;5040759;28;20670;-77
2022/01/06 09:17:12;;;;;;;7.30;2.00;;;;;;;;;;5039750;28;20029;-76
2022/01/06 09:19:37;;;;;;;8.40;3.60;;;;;;;;;;5037729;28;20387;-75
2022/01/06 09:22:03;;;;;;;6.80;3.07;;;;;;;;;;5071705;28;20028;-75
2022/01/06 09:24:29;;;;;;;11.33;4.23;;;;;;;;;;5041019;28;20029;-75
2022/01/06 09:26:55;;;;;;;7.47;3.00;;;;;;;;;;5042609;28;20040;-74
2022/01/06 09:29:21;;;;;;;6.27;2.40;;;;;;;;;;5038723;28;20086;-75
2022/01/06 09:31:47;;;;;;;6.63;3.20;;;;;;;;;;5045937;28;20025;-77
2022/01/06 09:34:12;;;;;;;8.00;2.90;;;;;;;;;;5042598;28;20035;-75
2022/01/06 09:36:40;;;;;;;5.40;2.67;;;;;;;;;;5037356;28;20032;-76
2022/01/06 09:39:10;;;;;;;7.40;2.40;;;;;;;;;;5036373;28;20052;-74
2022/01/06 09:41:37;;;;;;;8.90;2.83;;;;;;;;;;5037450;28;20067;-71
2022/01/06 09:44:07;;;;;;;4.67;2.40;;;;;;;;;;5037103;28;20047;-74
2022/01/06 09:46:33;;;;;;;4.90;2.33;;;;;;;;;;5040260;28;20033;-75
2022/01/06 09:49:00;;;;;;;10.33;2.40;;;;;;;;;;5036953;28;20087;-74
2022/01/06 09:51:30;;;;;;;4.40;2.23;;;;;;;;;;5039586;28;20508;-75
2022/01/06 09:54:00;;;;;;;2.97;1.53;;;;;;;;;;5041363;28;20444;-75
2022/01/06 09:56:29;;;;;;;5.40;1.90;;;;;;;;;;5039942;28;20021;-74
2022/01/06 09:58:55;;;;;;;3.90;1.37;;;;;;;;;;5038209;28;20534;-76
2022/01/06 10:01:21;;;;;;;6.43;1.90;;;;;;;;;;5021783;28;20412;-75
2022/01/06 10:03:48;;;;;;;5.07;2.27;;;;;;;;;;5039658;28;20037;-74
2022/01/06 10:06:21;;;;;;;7.10;2.37;;;;;;;;;;5038645;28;20187;-74
2022/01/06 10:08:53;;;;;;;4.53;2.10;;;;;;;;;;5036096;28;20029;-76
2022/01/06 10:11:28;;;;;;;8.80;2.37;;;;;;;;;;5041935;28;20044;-74
2022/01/06 10:14:19;;;;;;;2.93;1.67;;;;;;;;;;5041051;28;20028;-75
2022/01/06 10:16:50;;;;;;;2.83;1.30;;;;;;;;;;5038481;28;20039;-74
2022/01/06 10:19:17;;;;;;;4.60;1.60;;;;;;;;;;5037649;28;20025;-74
2022/01/06 10:21:48;;;;;;;8.70;3.23;;;;;;;;;;5038980;28;20155;-72
2022/01/06 10:24:16;;;;;;;3.72;2.08;;;;;;;;;;5041245;28;20582;-74
2022/01/06 10:27:06;;;;;;;5.73;2.20;;;;;;;;;;5038613;28;20390;-74
2022/01/06 10:29:37;;;;;;;5.10;2.17;;;;;;;;;;5035914;28;20040;-73
2022/01/06 10:32:06;;;;;;;4.55;1.40;;;;;;;;;;5036124;28;20089;-73
2022/01/06 10:34:35;;;;;;;12.20;3.20;;;;;;;;;;5039785;28;20032;-75
2022/01/06 10:37:05;;;;;;;11.53;2.33;;;;;;;;;;5036218;28;20143;-74
2022/01/06 10:39:44;;;;;;;5.67;2.33;;;;;;;;;;5036841;28;20045;-75
2022/01/06 10:42:12;;;;;;;8.30;2.23;;;;;;;;;;5040402;28;20547;-74
2022/01/06 10:44:53;;;;;;;12.13;2.77;;;;;;;;;;5041472;28;20493;-74
2022/01/06 10:47:36;;;;;;;3.70;1.80;;;;;;;;;;5038955;28;20473;-74
2022/01/06 10:50:17;;;;;;;8.03;3.53;;;;;;;;;;5033315;28;20037;-73
2022/01/06 10:52:47;;;;;;;10.00;3.17;;;;;;;;;;5038694;28;20052;-74
2022/01/06 10:55:19;;;;;;;11.03;3.20;;;;;;;;;;5038679;28;20546;-71
2022/01/06 10:57:55;;;;;;;11.55;3.22;;;;;;;;;;5034943;28;20108;-76
2022/01/06 11:00:23;;;;;;;5.17;1.70;;;;;;;;;;5030192;28;20033;-73
2022/01/06 11:02:49;;;;;;;6.40;1.93;;;;;;;;;;5018160;28;20064;-73
2022/01/06 11:05:14;;;;;;;11.57;3.03;;;;;;;;;;5036874;28;20091;-72
2022/01/06 11:07:40;;;;;;;6.33;1.93;;;;;;;;;;5038389;28;20033;-72
2022/01/06 11:10:16;;;;;;;8.93;2.73;;;;;;;;;;5028739;28;20048;-75
2022/01/06 11:12:42;;;;;;;12.20;3.47;;;;;;;;;;5034530;28;20040;-71
2022/01/06 11:15:09;;;;;;;9.23;2.50;;;;;;;;;;5035706;28;20032;-72
2022/01/06 11:17:35;;;;;;;4.33;2.23;;;;;;;;;;5041915;28;20025;-70
2022/01/06 11:20:01;;;;;;;10.27;2.60;;;;;;;;;;5035101;28;20119;-71
2022/01/06 11:22:27;;;;;;;8.47;2.90;;;;;;;;;;5034711;28;20017;-72
2022/01/06 11:24:57;;;;;;;15.23;2.97;;;;;;;;;;5038463;28;20041;-74
2022/01/06 11:27:34;;;;;;;7.13;3.13;;;;;;;;;;5038958;28;20123;-74
2022/01/06 11:30:13;;;;;;;8.10;2.20;;;;;;;;;;5037917;28;20037;-75
2022/01/06 11:32:41;;;;;;;6.10;1.80;;;;;;;;;;5039427;28;20075;-72
2022/01/06 11:35:19;;;;;;;11.07;3.37;;;;;;;;;;5040191;28;20124;-70
2022/01/06 11:37:51;;;;;;;6.87;2.27;;;;;;;;;;5038360;28;20025;-72
2022/01/06 11:40:40;;;;;;;5.22;2.08;;;;;;;;;;5033642;28;20052;-71
2022/01/06 11:43:06;;;;;;;12.87;2.47;;;;;;;;;;5037674;28;20028;-70
2022/01/06 11:45:31;;;;;;;3.67;2.10;;;;;;;;;;5038696;28;20028;-73
2022/01/06 11:48:14;;;;;;;8.77;2.83;;;;;;;;;;5038189;28;20080;-72
2022/01/06 11:50:46;;;;;;;7.13;2.22;;;;;;;;;;5035191;28;20032;-70
2022/01/06 11:53:12;;;;;;;4.28;1.60;;;;;;;;;;5040622;28;20031;-71
2022/01/06 11:55:41;;;;;;;8.10;2.87;;;;;;;;;;5039214;28;20043;-72
2022/01/06 11:58:18;;;;;;;2.97;1.77;;;;;;;;;;5038266;28;20025;-74
2022/01/06 12:01:12;;;;;;;4.53;2.40;;;;;;;;;;5033567;28;20047;-71
2022/01/06 12:03:41;;;;;;;9.50;2.80;;;;;;;;;;5039688;28;20033;-72
2022/01/06 12:06:08;;;;;;;10.83;3.67;;;;;;;;;;5041146;28;20025;-74
2022/01/06 12:08:40;;;;;;;5.70;2.50;;;;;;;;;;5040112;28;20033;-73
2022/01/06 12:11:33;;;;;;;13.27;4.63;;;;;;;;;;5038832;28;20033;-73
2022/01/06 12:14:00;;;;;;;17.42;6.55;;;;;;;;;;5037216;28;20033;-74
2022/01/06 12:16:37;;;;;;;7.53;2.67;;;;;;;;;;5041158;28;20082;-74
2022/01/06 12:19:14;;;;;;;9.17;3.03;;;;;;;;;;5040543;28;20033;-74
2022/01/06 12:21:40;;;;;;;13.07;3.23;;;;;;;;;;5042464;28;20104;-73
2022/01/06 12:24:08;;;;;;;6.37;2.43;;;;;;;;;;5044185;28;20176;-72
2022/01/06 12:26:35;;;;;;;7.10;2.87;;;;;;;;;;5036956;28;20079;-72
2022/01/06 12:29:04;;;;;;;11.87;3.10;;;;;;;;;;5039485;28;20060;-72
2022/01/06 12:31:31;;;;;;;6.53;2.40;;;;;;;;;;5039252;28;20102;-73
2022/01/06 12:34:02;;;;;;;5.17;2.00;;;;;;;;;;5039605;28;20048;-73
2022/01/06 12:36:32;;;;;;;3.50;2.10;;;;;;;;;;5038501;28;20102;-72
2022/01/06 12:39:24;;;;;;;7.37;2.33;;;;;;;;;;5038845;28;20057;-71
2022/01/06 12:41:52;;;;;;;3.13;1.93;;;;;;;;;;5041709;28;20029;-72
2022/01/06 12:44:24;;;;;;;3.97;2.00;;;;;;;;;;5044052;28;20475;-72
2022/01/06 12:46:50;;;;;;;9.02;3.25;;;;;;;;;;5043299;28;20040;-75
2022/01/06 12:49:16;;;;;;;6.97;3.03;;;;;;;;;;5038979;28;20036;-72
2022/01/06 12:51:45;;;;;;;9.37;2.53;;;;;;;;;;5044412;28;20579;-72
2022/01/06 12:54:17;;;;;;;11.17;2.77;;;;;;;;;;5042657;28;20780;-73
2022/01/06 12:56:49;;;;;;;8.70;2.93;;;;;;;;;;5042915;28;20033;-71
2022/01/06 12:59:17;;;;;;;8.35;2.17;;;;;;;;;;5040428;28;20028;-72
2022/01/06 13:01:44;;;;;;;6.93;2.00;;;;;;;;;;5043593;28;20025;-72
2022/01/06 13:04:11;;;;;;;3.60;2.20;;;;;;;;;;5043188;28;20029;-74
2022/01/06 13:06:40;;;;;;;5.80;2.43;;;;;;;;;;5042035;28;20132;-74
2022/01/06 13:09:21;;;;;;;8.97;2.80;;;;;;;;;;5071499;28;21079;-72
2022/01/06 13:11:52;;;;;;;10.47;2.90;;;;;;;;;;5043597;28;20039;-73
2022/01/06 13:14:47;;;;;;;10.60;2.77;;;;;;;;;;5023384;28;20120;-72
2022/01/06 13:17:30;;;;;;;7.20;2.53;;;;;;;;;;5040124;28;20037;-74
2022/01/06 13:20:02;;;;;;;6.83;2.60;;;;;;;;;;5039090;28;20029;-73
2022/01/06 13:25:27;;;;;;;13.00;5.10;;;;;;;;;;5046372;28;20025;-72
2022/01/06 13:28:05;;;;;;;7.50;2.53;;;;;;;;;;5041223;28;20037;-73
2022/01/06 13:30:42;;;;;;;15.20;3.00;;;;;;;;;;5036821;28;20093;-72
2022/01/06 13:33:10;;;;;;;7.13;3.00;;;;;;;;;;5039288;28;20497;-72
2022/01/06 13:35:57;;;;;;;7.50;3.87;;;;;;;;;;5038645;28;20202;-75
2022/01/06 13:38:42;;;;;;;10.47;3.03;;;;;;;;;;5021553;28;20068;-75
2022/01/06 13:41:09;;;;;;;9.63;3.23;;;;;;;;;;5038485;28;20113;-75
2022/01/06 13:43:45;;;;;;;8.50;3.00;;;;;;;;;;5041392;28;20052;-76
2022/01/06 13:46:14;;;;;;;5.50;3.10;;;;;;;;;;5039076;28;20040;-76
2022/01/06 13:48:44;;;;;;;12.20;3.47;;;;;;;;;;5037818;28;20383;-75
2022/01/06 13:51:16;;;;;;;5.00;2.73;;;;;;;;;;5041088;28;20033;-75
2022/01/06 13:53:48;;;;;;;;;;;;;;;;;;5039288;28;20067;-74
2022/01/06 13:56:32;;;;;;;5.80;2.60;;;;;;;;;;5041814;28;19932;-75
2022/01/06 13:59:13;;;;;;;11.90;4.23;;;;;;;;;;5037231;28;20075;-77
2022/01/06 14:01:44;;;;;;;11.30;3.30;;;;;;;;;;5039140;28;20033;-74
2022/01/06 14:04:18;;;;;;;5.30;3.27;;;;;;;;;;5039419;28;20060;-75
2022/01/06 14:06:43;;;;;;;5.67;2.90;;;;;;;;;;5053337;28;20040;-75
2022/01/06 14:09:10;;;;;;;8.00;3.20;;;;;;;;;;5036879;28;20039;-76
2022/01/06 14:11:35;;;;;;;7.50;3.27;;;;;;;;;;5039142;28;20132;-75
2022/01/06 14:14:01;;;;;;;5.43;3.00;;;;;;;;;;5038463;28;20029;-75
2022/01/06 14:16:27;;;;;;;7.93;2.97;;;;;;;;;;5035353;28;20041;-74
2022/01/06 14:18:53;;;;;;;9.80;2.63;;;;;;;;;;5041097;28;20037;-75
2022/01/06 14:21:18;;;;;;;13.20;3.30;;;;;;;;;;5042072;28;20079;-75
2022/01/06 14:23:44;;;;;;;9.80;3.17;;;;;;;;;;5043521;28;20749;-74
2022/01/06 14:26:11;;;;;;;16.23;3.20;;;;;;;;;;5043381;28;20509;-76
2022/01/06 14:28:39;;;;;;;7.10;2.80;;;;;;;;;;5039596;28;20851;-76
2022/01/06 14:31:07;;;;;;;6.17;2.90;;;;;;;;;;5045365;28;20025;-76
2022/01/06 14:33:34;;;;;;;7.03;2.53;;;;;;;;;;5044723;28;20021;-75
2022/01/06 14:36:01;;;;;;;8.50;3.03;;;;;;;;;;5077810;28;20044;-75
2022/01/06 14:38:27;;;;;;;7.23;3.33;;;;;;;;;;5044637;28;20037;-73
2022/01/06 14:40:54;;;;;;;6.70;2.53;;;;;;;;;;5076163;28;20820;-74
2022/01/06 14:43:20;;;;;;;4.77;2.03;;;;;;;;;;5044801;28;20020;-73
2022/01/06 14:45:46;;;;;;;13.13;2.40;;;;;;;;;;5044568;28;20024;-73
2022/01/06 14:48:12;;;;;;;5.53;2.40;;;;;;;;;;5046412;28;20469;-72
2022/01/06 14:50:38;;;;;;;12.50;2.53;;;;;;;;;;5042427;28;20633;-75
2022/01/06 14:53:04;;;;;;;6.67;2.10;;;;;;;;;;5046057;28;20025;-73
2022/01/06 14:55:30;;;;;;;8.00;2.03;;;;;;;;;;5043336;28;20028;-73
2022/01/06 14:57:56;;;;;;;6.13;2.50;;;;;;;;;;5044584;28;20025;-72